createdAt,value
2022-08-03T00:00:24.159Z,2.85
2022-08-03T00:02:51.194Z,2.38
2022-08-03T00:05:18.084Z,2.13
2022-08-03T00:07:44.914Z,2.50
2022-08-03T00:10:13.516Z,2.50
2022-08-03T00:12:40.301Z,2.05
2022-08-03T00:15:09.499Z,2.50
2022-08-03T00:17:53.444Z,2.72
2022-08-03T00:20:24.318Z,1.98
2022-08-03T00:22:51.524Z,2.78
2022-08-03T00:25:18.637Z,2.25
2022-08-03T00:27:45.603Z,2.05
2022-08-03T00:30:15.211Z,2.15
2022-08-03T00:32:44.989Z,2.05
2022-08-03T00:35:29.345Z,2.15
2022-08-03T00:37:59.353Z,2.38
2022-08-03T00:40:26.342Z,2.60
2022-08-03T00:42:58.744Z,2.25
2022-08-03T00:45:28.125Z,2.05
2022-08-03T00:47:54.978Z,3.22
2022-08-03T00:50:23.638Z,3.85
2022-08-03T00:52:53.205Z,3.42
2022-08-03T00:55:20.589Z,2.70
2022-08-03T00:57:47.635Z,2.42
2022-08-03T01:00:18.331Z,2.40
2022-08-03T01:02:45.188Z,2.30
2022-08-03T01:05:12.110Z,1.83
2022-08-03T01:08:05.840Z,2.25
2022-08-03T01:10:37.577Z,2.33
2022-08-03T01:14:03.800Z,3.55
2022-08-03T01:16:03.818Z,1.83
2022-08-03T01:18:45.125Z,2.03
2022-08-03T01:21:21.598Z,3.08
2022-08-03T01:23:55.252Z,2.50
2022-08-03T01:26:49.105Z,2.65
2022-08-03T01:29:34.381Z,2.95
2022-08-03T01:32:59.812Z,3.03
2022-08-03T01:35:09.005Z,2.90
2022-08-03T01:37:40.676Z,2.65
2022-08-03T01:40:09.511Z,2.53
2022-08-03T01:42:38.481Z,2.20
2022-08-03T01:45:07.028Z,4.22
2022-08-03T01:47:34.644Z,3.90
2022-08-03T01:50:02.981Z,3.58
2022-08-03T01:52:31.707Z,3.35
2022-08-03T01:54:59.988Z,3.67
2022-08-03T01:57:29.477Z,3.67
2022-08-03T01:59:57.855Z,5.40
2022-08-03T02:02:32.940Z,4.18
2022-08-03T02:05:03.257Z,4.55
2022-08-03T02:07:32.043Z,4.03
2022-08-03T02:10:00.990Z,4.63
2022-08-03T02:12:29.924Z,3.53
2022-08-03T02:15:00.072Z,5.32
2022-08-03T02:17:39.710Z,5.05
2022-08-03T02:20:09.596Z,4.40
2022-08-03T02:22:40.510Z,4.07
2022-08-03T02:25:09.913Z,4.65
2022-08-03T02:28:01.081Z,5.63
2022-08-03T02:30:38.500Z,5.18
2022-08-03T02:33:08.626Z,5.63
2022-08-03T02:35:36.879Z,5.22
2022-08-03T02:38:07.552Z,4.60
2022-08-03T02:40:36.336Z,4.68
2022-08-03T02:43:08.328Z,4.68
2022-08-03T02:45:45.359Z,4.20
2022-08-03T02:48:15.952Z,4.05
2022-08-03T02:50:44.587Z,3.92
2022-08-03T02:53:12.710Z,4.32
2022-08-03T02:55:45.865Z,3.75
2022-08-03T02:58:14.063Z,4.28
2022-08-03T03:00:43.970Z,4.28
2022-08-03T03:03:11.496Z,3.75
2022-08-03T03:05:54.984Z,3.47
2022-08-03T03:08:28.159Z,4.00
2022-08-03T03:10:59.281Z,3.43
2022-08-03T03:13:28.846Z,2.75
2022-08-03T03:15:58.545Z,4.10
2022-08-03T03:18:27.612Z,2.47
2022-08-03T03:20:55.769Z,2.55
2022-08-03T03:23:24.803Z,3.83
2022-08-03T03:25:52.732Z,3.53
2022-08-03T03:28:20.767Z,2.63
2022-08-03T03:30:52.564Z,2.30
2022-08-03T03:35:47.391Z,3.10
2022-08-03T03:38:14.345Z,3.50
2022-08-03T03:40:41.539Z,3.67
2022-08-03T03:43:10.215Z,4.90
2022-08-03T03:45:37.912Z,3.35
2022-08-03T03:48:05.385Z,4.15
2022-08-03T03:50:34.908Z,3.45
2022-08-03T03:53:02.879Z,3.63
2022-08-03T03:55:30.440Z,3.78
2022-08-03T03:57:57.220Z,3.38
2022-08-03T04:00:24.043Z,3.65
2022-08-03T04:02:50.785Z,5.22
2022-08-03T04:05:36.266Z,3.97
2022-08-03T04:08:27.749Z,3.20
2022-08-03T04:11:05.820Z,3.88
2022-08-03T04:13:38.454Z,4.82
2022-08-03T04:16:07.056Z,3.10
2022-08-03T04:18:37.163Z,3.97
2022-08-03T04:21:08.565Z,3.28
2022-08-03T04:23:40.074Z,3.80
2022-08-03T04:26:09.975Z,3.65
2022-08-03T04:28:39.505Z,3.40
2022-08-03T04:31:07.355Z,3.42
2022-08-03T04:33:35.665Z,3.42
2022-08-03T04:36:07.049Z,4.07
2022-08-03T04:38:44.125Z,4.05
2022-08-03T04:41:11.731Z,3.65
2022-08-03T04:43:41.792Z,4.30
2022-08-03T04:46:09.926Z,3.60
2022-08-03T04:48:37.032Z,3.85
2022-08-03T04:51:04.497Z,2.83
2022-08-03T04:53:31.433Z,4.20
2022-08-03T04:56:05.546Z,3.67
2022-08-03T04:58:32.888Z,2.92
2022-08-03T05:00:59.884Z,3.35
2022-08-03T05:03:26.709Z,4.75
2022-08-03T05:06:01.738Z,4.47
2022-08-03T05:11:02.887Z,4.70
2022-08-03T05:13:29.674Z,4.05
2022-08-03T05:15:56.552Z,4.65
2022-08-03T05:18:23.336Z,3.95
2022-08-03T05:20:50.160Z,4.72
2022-08-03T05:23:17.072Z,4.32
2022-08-03T05:25:49.903Z,3.92
2022-08-03T05:28:17.013Z,4.75
2022-08-03T05:30:43.872Z,4.18
2022-08-03T05:33:11.075Z,4.70
2022-08-03T05:36:02.098Z,5.43
2022-08-03T05:38:28.724Z,3.65
2022-08-03T05:41:21.155Z,3.97
2022-08-03T05:43:48.287Z,4.25
2022-08-03T05:46:15.769Z,4.20
2022-08-03T05:48:42.731Z,4.07
2022-08-03T05:51:11.691Z,3.90
2022-08-03T05:53:40.126Z,3.92
2022-08-03T05:56:14.238Z,4.45
2022-08-03T05:58:47.208Z,3.65
2022-08-03T06:01:15.776Z,3.65
2022-08-03T06:03:42.669Z,3.85
2022-08-03T06:06:09.655Z,4.20
2022-08-03T06:08:36.451Z,4.25
2022-08-03T06:11:04.016Z,4.18
2022-08-03T06:13:30.919Z,4.93
2022-08-03T06:15:57.791Z,3.65
2022-08-03T06:18:24.711Z,4.55
2022-08-03T06:20:52.458Z,5.15
2022-08-03T06:23:19.603Z,4.00
2022-08-03T06:25:47.167Z,3.50
2022-08-03T06:28:42.551Z,4.05
2022-08-03T06:31:01.901Z,3.85
2022-08-03T06:34:30.808Z,3.33
2022-08-03T06:36:15.938Z,3.20
2022-08-03T06:38:42.829Z,3.20
2022-08-03T06:41:09.665Z,3.13
2022-08-03T06:43:38.046Z,2.40
2022-08-03T06:46:24.345Z,2.85
2022-08-03T06:48:52.126Z,3.05
2022-08-03T06:51:19.038Z,2.13
2022-08-03T06:53:45.813Z,2.90
2022-08-03T06:56:12.597Z,2.50
2022-08-03T06:58:39.372Z,2.13
2022-08-03T07:01:06.185Z,1.83
2022-08-03T07:03:33.080Z,2.42
2022-08-03T07:05:59.912Z,1.80
2022-08-03T07:08:34.112Z,1.95
2022-08-03T07:11:01.736Z,1.52
2022-08-03T07:13:28.521Z,1.63
2022-08-03T07:15:56.581Z,1.52
2022-08-03T07:18:25.701Z,1.35
2022-08-03T07:20:58.155Z,1.63
2022-08-03T07:23:25.682Z,1.42
2022-08-03T07:25:52.759Z,2.47
2022-08-03T07:28:20.302Z,1.23
2022-08-03T07:30:47.357Z,1.58
2022-08-03T07:33:15.151Z,1.48
2022-08-03T07:35:42.300Z,1.83
2022-08-03T07:38:09.077Z,2.00
2022-08-03T07:40:35.900Z,1.92
2022-08-03T07:43:03.733Z,1.38
2022-08-03T07:45:31.883Z,1.83
2022-08-03T07:47:58.749Z,1.80
2022-08-03T07:50:26.015Z,2.13
2022-08-03T07:52:54.021Z,2.00
2022-08-03T07:55:22.949Z,1.70
2022-08-03T07:58:06.183Z,1.38
2022-08-03T08:00:33.981Z,1.48
2022-08-03T08:03:00.829Z,1.70
2022-08-03T08:05:28.180Z,1.90
2022-08-03T08:07:55.528Z,2.08
2022-08-03T08:10:22.829Z,1.38
2022-08-03T08:12:49.733Z,1.27
2022-08-03T08:15:16.528Z,1.80
2022-08-03T08:17:44.605Z,0.90
2022-08-03T08:20:12.652Z,1.73
2022-08-03T08:22:39.440Z,1.58
2022-08-03T08:25:07.587Z,1.10
2022-08-03T08:28:31.450Z,1.50
2022-08-03T08:30:23.495Z,0.90
2022-08-03T08:32:50.947Z,1.00
2022-08-03T08:35:18.464Z,0.90
2022-08-03T08:37:51.035Z,0.77
2022-08-03T08:40:21.807Z,0.85
2022-08-03T08:42:58.477Z,0.75
2022-08-03T08:45:26.403Z,0.93
2022-08-03T08:48:01.056Z,0.73
2022-08-03T08:50:29.750Z,1.10
2022-08-03T08:52:59.905Z,0.88
2022-08-03T08:55:27.010Z,0.95
2022-08-03T08:57:59.339Z,0.90
2022-08-03T09:02:53.025Z,1.02
2022-08-03T09:05:31.492Z,0.90
2022-08-03T09:08:07.405Z,0.80
2022-08-03T09:10:34.845Z,0.60
2022-08-03T09:13:01.748Z,0.50
2022-08-03T09:15:34.042Z,1.52
2022-08-03T09:18:03.071Z,1.08
2022-08-03T09:20:33.129Z,0.70
2022-08-03T09:23:13.999Z,1.02
2022-08-03T09:25:59.884Z,0.95
2022-08-03T09:29:00.614Z,0.82
2022-08-03T09:31:50.147Z,1.00
2022-08-03T09:34:18.267Z,2.45
2022-08-03T09:36:54.501Z,1.17
2022-08-03T09:39:41.318Z,1.95
2022-08-03T09:42:15.514Z,1.20
2022-08-03T09:44:44.911Z,0.88
2022-08-03T09:47:13.637Z,0.63
2022-08-03T09:49:41.873Z,0.90
2022-08-03T09:52:32.867Z,1.10
2022-08-03T09:56:30.885Z,0.70
2022-08-03T09:58:06.354Z,0.63
2022-08-03T10:00:33.181Z,1.10
2022-08-03T10:03:05.393Z,0.85
2022-08-03T10:05:33.189Z,1.33
2022-08-03T10:07:59.965Z,1.30
2022-08-03T10:10:31.110Z,1.60
2022-08-03T10:13:00.201Z,1.05
2022-08-03T10:16:22.390Z,1.20
2022-08-03T10:18:14.506Z,1.00
2022-08-03T10:20:51.610Z,0.90
2022-08-03T10:23:21.540Z,1.00
2022-08-03T10:25:53.967Z,1.20
2022-08-03T10:28:22.145Z,0.70
2022-08-03T10:30:51.317Z,1.33
2022-08-03T10:33:51.082Z,1.50
2022-08-03T10:36:14.293Z,1.63
2022-08-03T10:38:47.397Z,1.52
2022-08-03T10:41:18.098Z,1.00
2022-08-03T10:43:56.724Z,1.02
2022-08-03T10:46:23.843Z,1.30
2022-08-03T10:48:52.526Z,0.88
2022-08-03T10:51:20.285Z,1.02
2022-08-03T10:53:54.196Z,0.75
2022-08-03T10:56:51.645Z,1.58
2022-08-03T10:59:27.589Z,0.93
2022-08-03T11:01:58.678Z,1.05
2022-08-03T11:04:29.561Z,1.45
2022-08-03T11:07:15.656Z,1.48
2022-08-03T11:09:44.346Z,1.50
2022-08-03T11:12:30.506Z,1.23
2022-08-03T11:15:01.740Z,0.90
2022-08-03T11:17:28.636Z,1.63
2022-08-03T11:19:57.564Z,1.40
2022-08-03T11:22:25.618Z,1.13
2022-08-03T11:24:54.387Z,1.10
2022-08-03T11:27:23.276Z,0.88
2022-08-03T11:30:13.804Z,1.40
2022-08-03T11:32:40.546Z,1.10
2022-08-03T11:35:15.064Z,1.00
2022-08-03T11:38:08.889Z,1.20
2022-08-03T11:40:44.672Z,0.98
2022-08-03T11:43:35.003Z,0.93
2022-08-03T11:46:28.484Z,1.30
2022-08-03T11:49:10.565Z,1.10
2022-08-03T11:51:39.940Z,1.00
2022-08-03T11:54:07.690Z,1.60
2022-08-03T11:56:48.904Z,1.10
2022-08-03T11:59:21.836Z,0.82
2022-08-03T12:01:50.060Z,1.38
2022-08-03T12:04:16.895Z,1.58
2022-08-03T12:06:59.322Z,1.38
2022-08-03T12:12:00.244Z,1.20
2022-08-03T12:14:49.546Z,1.52
2022-08-03T12:17:15.297Z,1.13
2022-08-03T12:19:43.726Z,1.20
2022-08-03T12:22:10.570Z,1.50
2022-08-03T12:24:46.745Z,1.40
2022-08-03T12:27:24.125Z,1.42
2022-08-03T12:29:59.272Z,0.93
2022-08-03T12:32:27.424Z,0.95
2022-08-03T12:34:55.581Z,1.65
2022-08-03T12:37:23.709Z,1.40
2022-08-03T12:40:01.684Z,1.17
2022-08-03T12:42:35.457Z,1.05
2022-08-03T12:45:26.203Z,1.00
2022-08-03T12:48:00.463Z,0.90
2022-08-03T12:50:31.556Z,1.10
2022-08-03T12:52:59.740Z,1.38
2022-08-03T12:55:57.453Z,1.33
2022-08-03T12:58:35.170Z,1.60
2022-08-03T13:01:04.736Z,0.90
2022-08-03T13:03:49.787Z,1.08
2022-08-03T13:06:23.283Z,1.37
2022-08-03T13:09:01.077Z,1.00
2022-08-03T13:11:52.522Z,1.23
2022-08-03T13:14:16.689Z,1.42
2022-08-03T13:16:46.721Z,1.23
2022-08-03T13:19:15.699Z,1.20
2022-08-03T13:21:53.495Z,1.65
2022-08-03T13:24:31.709Z,1.27
2022-08-03T13:26:59.590Z,1.35
2022-08-03T13:29:26.483Z,1.30
2022-08-03T13:31:53.243Z,1.40
2022-08-03T13:34:23.436Z,1.33
2022-08-03T13:39:48.203Z,1.67
2022-08-03T13:42:25.725Z,1.70
2022-08-03T13:44:52.612Z,1.17
2022-08-03T13:47:20.272Z,1.65
2022-08-03T13:50:03.068Z,1.13
2022-08-03T13:52:34.451Z,1.55
2022-08-03T13:55:03.352Z,1.30
2022-08-03T13:58:06.599Z,1.27
2022-08-03T14:00:27.365Z,1.40
2022-08-03T14:03:15.311Z,1.48
2022-08-03T14:05:43.608Z,1.42
2022-08-03T14:08:12.027Z,0.90
2022-08-03T14:10:42.536Z,1.63
2022-08-03T14:13:12.258Z,1.23
2022-08-03T14:15:39.467Z,1.20
2022-08-03T14:18:15.673Z,1.33
2022-08-03T14:20:50.025Z,0.98
2022-08-03T14:23:18.132Z,1.20
2022-08-03T14:25:51.734Z,1.45
2022-08-03T14:28:22.531Z,1.20
2022-08-03T14:30:50.199Z,1.20
2022-08-03T14:33:17.076Z,1.27
2022-08-03T14:35:43.874Z,1.92
2022-08-03T14:38:10.676Z,1.48
2022-08-03T14:40:37.647Z,1.42
2022-08-03T14:43:07.605Z,1.52
2022-08-03T14:45:34.583Z,1.63
2022-08-03T14:50:29.052Z,1.90
2022-08-03T14:50:51.665Z,1.48
2022-08-03T14:53:19.931Z,1.60
2022-08-03T14:55:49.556Z,1.17
2022-08-03T14:58:20.708Z,1.33
2022-08-03T15:00:48.681Z,1.63
2022-08-03T15:03:17.103Z,1.65
2022-08-03T15:05:44.942Z,1.00
2022-08-03T15:08:11.849Z,0.80
2022-08-03T15:10:43.864Z,1.20
2022-08-03T15:13:12.160Z,1.52
2022-08-03T15:15:39.278Z,1.15
2022-08-03T15:18:06.289Z,1.25
2022-08-03T15:20:43.983Z,1.20
2022-08-03T15:23:11.979Z,0.82
2022-08-03T15:26:06.472Z,1.08
2022-08-03T15:28:25.635Z,1.23
2022-08-03T15:30:54.085Z,1.00
2022-08-03T15:33:21.303Z,1.02
2022-08-03T15:35:48.311Z,0.80
2022-08-03T15:38:15.534Z,1.48
2022-08-03T15:40:42.402Z,0.93
2022-08-03T15:43:09.467Z,1.45
2022-08-03T15:45:37.185Z,1.35
2022-08-03T15:48:07.282Z,1.40
2022-08-03T15:50:34.295Z,1.02
2022-08-03T15:53:01.232Z,1.27
2022-08-03T15:55:28.112Z,1.20
2022-08-03T15:59:09.484Z,0.80
2022-08-03T16:00:43.167Z,1.63
2022-08-03T16:03:13.260Z,1.40
2022-08-03T16:05:40.169Z,0.93
2022-08-03T16:08:11.629Z,1.38
2022-08-03T16:10:40.679Z,0.88
2022-08-03T16:13:07.997Z,1.20
2022-08-03T16:15:38.499Z,1.08
2022-08-03T16:18:08.665Z,0.90
2022-08-03T16:20:38.923Z,1.17
2022-08-03T16:23:11.615Z,1.52
2022-08-03T16:25:41.761Z,1.02
2022-08-03T16:28:13.923Z,1.10
2022-08-03T16:30:45.917Z,1.42
2022-08-03T16:33:16.708Z,1.02
2022-08-03T16:35:45.159Z,1.00
2022-08-03T16:38:16.582Z,1.13
2022-08-03T16:40:47.163Z,1.08
2022-08-03T16:43:18.435Z,0.88
2022-08-03T16:45:46.928Z,1.38
2022-08-03T16:48:16.025Z,1.33
2022-08-03T16:50:44.317Z,1.23
2022-08-03T16:53:15.565Z,1.30
2022-08-03T16:55:53.717Z,1.20
2022-08-03T16:58:41.459Z,1.35
2022-08-03T17:01:24.240Z,0.93
2022-08-03T17:06:34.269Z,0.80
2022-08-03T17:09:09.119Z,0.82
2022-08-03T17:11:46.906Z,0.88
2022-08-03T17:14:21.873Z,1.10
2022-08-03T17:16:53.679Z,0.80
2022-08-03T17:19:23.756Z,1.15
2022-08-03T17:22:13.368Z,0.80
2022-08-03T17:24:51.597Z,0.75
2022-08-03T17:28:42.079Z,0.82
2022-08-03T17:30:12.169Z,1.02
2022-08-03T17:32:56.988Z,1.05
2022-08-03T17:35:36.935Z,1.45
2022-08-03T17:38:10.317Z,1.17
2022-08-03T17:40:37.947Z,0.90
2022-08-03T17:44:13.249Z,1.00
2022-08-03T17:45:54.911Z,1.30
2022-08-03T17:48:24.909Z,0.98
2022-08-03T17:51:07.724Z,1.15
2022-08-03T17:53:49.945Z,0.98
2022-08-03T17:56:40.323Z,1.00
2022-08-03T17:59:51.782Z,1.35
2022-08-03T18:02:59.115Z,1.48
2022-08-03T18:06:11.342Z,1.23
2022-08-03T18:08:29.788Z,1.25
2022-08-03T18:11:09.684Z,1.50
2022-08-03T18:13:57.572Z,1.38
2022-08-03T18:16:35.844Z,1.00
2022-08-03T18:19:09.732Z,1.42
2022-08-03T18:22:02.576Z,1.02
2022-08-03T18:24:29.580Z,1.63
2022-08-03T18:26:58.848Z,1.75
2022-08-03T18:29:27.445Z,1.10
2022-08-03T18:32:02.925Z,1.30
2022-08-03T18:34:34.477Z,1.60
2022-08-03T18:37:07.375Z,1.42
2022-08-03T18:39:49.246Z,1.67
2022-08-03T18:44:53.902Z,1.20
2022-08-03T18:47:51.984Z,1.10
2022-08-03T18:50:32.330Z,1.25
2022-08-03T18:53:22.092Z,1.15
2022-08-03T18:56:32.621Z,1.60
2022-08-03T18:59:05.046Z,1.27
2022-08-03T19:02:13.673Z,1.40
2022-08-03T19:04:48.130Z,1.65
2022-08-03T19:07:24.946Z,1.10
2022-08-03T19:09:58.327Z,1.50
2022-08-03T19:12:39.658Z,1.63
2022-08-03T19:15:10.375Z,1.92
2022-08-03T19:17:50.277Z,1.52
2022-08-03T19:20:22.452Z,1.75
2022-08-03T19:22:52.936Z,1.83
2022-08-03T19:25:19.972Z,1.52
2022-08-03T19:28:03.714Z,1.43
2022-08-03T19:30:39.022Z,1.60
2022-08-03T19:33:08.917Z,1.48
2022-08-03T19:35:51.217Z,1.25
2022-08-03T19:38:28.622Z,1.30
2022-08-03T19:41:03.014Z,1.48
2022-08-03T19:43:52.562Z,1.00
2022-08-03T19:46:22.594Z,0.95
2022-08-03T19:49:15.132Z,1.15
2022-08-03T19:51:59.401Z,1.55
2022-08-03T19:54:52.889Z,1.00
2022-08-03T19:57:23.435Z,1.20
2022-08-03T19:59:52.520Z,0.95
2022-08-03T20:02:27.212Z,0.80
2022-08-03T20:04:56.109Z,1.48
2022-08-03T20:07:23.830Z,0.98
2022-08-03T20:09:54.335Z,1.17
2022-08-03T20:12:28.419Z,1.02
2022-08-03T20:14:59.213Z,1.20
2022-08-03T20:17:54.094Z,1.52
2022-08-03T20:20:18.502Z,1.13
2022-08-03T20:22:51.282Z,1.35
2022-08-03T20:25:26.682Z,1.00
2022-08-03T20:28:13.948Z,0.88
2022-08-03T20:30:47.235Z,0.98
2022-08-03T20:33:18.369Z,0.85
2022-08-03T20:35:49.216Z,1.40
2022-08-03T20:38:19.504Z,1.38
2022-08-03T20:40:48.058Z,1.17
2022-08-03T20:43:15.993Z,1.65
2022-08-03T20:45:59.991Z,0.90
2022-08-03T20:48:31.865Z,1.30
2022-08-03T20:50:59.446Z,1.20
2022-08-03T20:53:57.082Z,1.10
2022-08-03T20:56:14.922Z,1.23
2022-08-03T20:58:42.513Z,1.42
2022-08-03T21:01:17.691Z,1.90
2022-08-03T21:03:55.813Z,1.42
2022-08-03T21:06:28.348Z,1.38
2022-08-03T21:11:29.473Z,1.13
2022-08-03T21:14:15.849Z,0.82
2022-08-03T21:16:45.724Z,1.55
2022-08-03T21:19:13.197Z,1.05
2022-08-03T21:21:42.121Z,0.90
2022-08-03T21:24:11.877Z,1.10
2022-08-03T21:26:40.059Z,0.95
2022-08-03T21:29:08.230Z,1.00
2022-08-03T21:31:35.789Z,1.50
2022-08-03T21:34:05.711Z,1.25
2022-08-03T21:36:35.826Z,1.48
2022-08-03T21:39:05.145Z,1.00
2022-08-03T21:41:33.036Z,1.30
2022-08-03T21:44:01.074Z,1.30
2022-08-03T21:46:33.057Z,1.30
2022-08-03T21:50:04.617Z,0.95
2022-08-03T21:51:52.190Z,0.85
2022-08-03T21:54:20.992Z,1.35
2022-08-03T21:56:50.528Z,0.70
2022-08-03T21:59:19.676Z,1.05
2022-08-03T22:01:49.053Z,1.20
2022-08-03T22:04:50.159Z,1.10
2022-08-03T22:07:08.311Z,1.38
2022-08-03T22:09:35.997Z,1.10
2022-08-03T22:12:03.142Z,1.35
2022-08-03T22:14:32.834Z,1.17
2022-08-03T22:17:00.738Z,1.00
2022-08-03T22:19:30.332Z,1.15
2022-08-03T22:21:58.360Z,1.20
2022-08-03T22:24:29.911Z,1.00
2022-08-03T22:27:15.471Z,0.97
2022-08-03T22:29:42.929Z,1.30
2022-08-03T22:32:09.822Z,1.30
2022-08-03T22:34:37.121Z,1.20
2022-08-03T22:37:05.151Z,1.13
2022-08-03T22:39:32.283Z,1.00
2022-08-03T22:41:59.829Z,0.90
2022-08-03T22:44:27.895Z,1.35
2022-08-03T22:46:55.788Z,1.20
2022-08-03T22:49:23.001Z,1.00
2022-08-03T22:51:52.068Z,1.27
2022-08-03T22:54:19.282Z,1.00
2022-08-03T22:56:47.111Z,0.93
2022-08-03T22:59:38.817Z,1.52
2022-08-03T23:02:19.894Z,0.82
2022-08-03T23:04:56.856Z,1.00
2022-08-03T23:07:38.783Z,1.48
2022-08-03T23:10:08.552Z,1.20
2022-08-03T23:12:37.178Z,0.90
2022-08-03T23:15:07.344Z,1.02
2022-08-03T23:17:37.833Z,1.40
2022-08-03T23:20:26.711Z,1.30
2022-08-03T23:22:54.673Z,1.10
2022-08-03T23:25:22.081Z,1.15
2022-08-03T23:28:04.600Z,1.65
2022-08-03T23:30:34.843Z,1.33
2022-08-03T23:33:02.875Z,1.20
2022-08-03T23:36:20.150Z,1.33
2022-08-03T23:38:36.712Z,0.88
2022-08-03T23:41:06.711Z,1.05
2022-08-03T23:43:52.127Z,1.05
2022-08-03T23:46:22.432Z,1.10
2022-08-03T23:48:50.191Z,1.17
2022-08-03T23:51:52.256Z,1.15
2022-08-03T23:54:59.927Z,1.40
2022-08-03T23:57:32.213Z,1.60
